KFRR/FRR METAR and TAF weather

Enter ICAO airport designator
Station Type Date Time Source
KFRR METAR 2019/06/16 12:55 UTC NOAA

KFRR 161255Z AUTO 21005KT 10SM CLR 23/17 A2989 RMK AO1


Station Type Date Time Source
KFRR Decoded METAR 2019/06/16 12:55 UTC NOAA

Station name not available
Jun 16, 2019 - 08:55 AM EDT / 2019.06.16 1255 UTC
Wind: from the SSW (210 degrees) at 6 MPH (5 KT):0
Visibility: 10 mile(s):0
Sky conditions: clear
Temperature: 73 F (23 C)
Dew Point: 62 F (17 C)
Relative Humidity: 68%
Pressure (altimeter): 29.89 in. Hg (1012 hPa)
ob: KFRR 161255Z AUTO 21005KT 10SM CLR 23/17 A2989 RMK AO1
cycle: 13

Station Type Date Time Source
KFRR TAF UTC NOAA

Error!

Example: see airport list